sensor_id;sensor_type;location;lat;lon;timestamp;P1;durP1;ratioP1;P2;durP2;ratioP2
14858;SDS011;7521;51.700;6.874;2023-04-30T00:01:10;8.00;;;7.13;;
14858;SDS011;7521;51.700;6.874;2023-04-30T00:04:15;9.02;;;7.60;;
14858;SDS011;7521;51.700;6.874;2023-04-30T00:07:20;9.23;;;7.68;;
14858;SDS011;7521;51.700;6.874;2023-04-30T00:10:25;12.73;;;8.00;;
14858;SDS011;7521;51.700;6.874;2023-04-30T00:13:30;9.45;;;7.95;;
14858;SDS011;7521;51.700;6.874;2023-04-30T00:16:36;9.20;;;7.10;;
14858;SDS011;7521;51.700;6.874;2023-04-30T00:19:41;8.38;;;7.13;;
14858;SDS011;7521;51.700;6.874;2023-04-30T00:22:46;9.40;;;7.97;;
14858;SDS011;7521;51.700;6.874;2023-04-30T00:25:51;9.27;;;7.15;;
14858;SDS011;7521;51.700;6.874;2023-04-30T00:28:56;11.63;;;7.93;;
14858;SDS011;7521;51.700;6.874;2023-04-30T00:32:02;9.73;;;7.88;;
14858;SDS011;7521;51.700;6.874;2023-04-30T00:35:07;12.53;;;7.27;;
14858;SDS011;7521;51.700;6.874;2023-04-30T00:38:12;14.33;;;8.80;;
14858;SDS011;7521;51.700;6.874;2023-04-30T00:41:17;9.60;;;7.60;;
14858;SDS011;7521;51.700;6.874;2023-04-30T00:44:23;10.70;;;8.00;;
14858;SDS011;7521;51.700;6.874;2023-04-30T00:47:28;10.80;;;7.63;;
14858;SDS011;7521;51.700;6.874;2023-04-30T00:50:36;12.30;;;8.40;;
14858;SDS011;7521;51.700;6.874;2023-04-30T00:53:41;11.43;;;8.07;;
14858;SDS011;7521;51.700;6.874;2023-04-30T00:56:47;11.07;;;8.33;;
14858;SDS011;7521;51.700;6.874;2023-04-30T00:59:53;13.13;;;8.43;;
14858;SDS011;7521;51.700;6.874;2023-04-30T01:02:58;13.63;;;9.03;;
14858;SDS011;7521;51.700;6.874;2023-04-30T01:06:04;11.80;;;8.73;;
14858;SDS011;7521;51.700;6.874;2023-04-30T01:09:09;10.43;;;8.10;;
14858;SDS011;7521;51.700;6.874;2023-04-30T01:15:35;12.40;;;9.03;;
14858;SDS011;7521;51.700;6.874;2023-04-30T01:18:44;12.67;;;9.43;;
14858;SDS011;7521;51.700;6.874;2023-04-30T01:21:50;11.43;;;8.43;;
14858;SDS011;7521;51.700;6.874;2023-04-30T01:25:13;12.13;;;8.80;;
14858;SDS011;7521;51.700;6.874;2023-04-30T01:28:22;10.43;;;8.33;;
14858;SDS011;7521;51.700;6.874;2023-04-30T01:31:28;10.67;;;8.87;;
14858;SDS011;7521;51.700;6.874;2023-04-30T01:34:33;11.23;;;8.18;;
14858;SDS011;7521;51.700;6.874;2023-04-30T01:41:25;8.67;;;7.70;;
14858;SDS011;7521;51.700;6.874;2023-04-30T01:47:38;10.30;;;7.77;;
14858;SDS011;7521;51.700;6.874;2023-04-30T01:50:48;12.87;;;7.70;;
14858;SDS011;7521;51.700;6.874;2023-04-30T01:53:56;9.13;;;7.50;;
14858;SDS011;7521;51.700;6.874;2023-04-30T01:57:05;11.07;;;8.23;;
14858;SDS011;7521;51.700;6.874;2023-04-30T02:00:11;11.27;;;8.33;;
14858;SDS011;7521;51.700;6.874;2023-04-30T02:03:18;11.17;;;8.77;;
14858;SDS011;7521;51.700;6.874;2023-04-30T02:06:24;13.52;;;8.60;;
14858;SDS011;7521;51.700;6.874;2023-04-30T02:09:33;10.47;;;8.40;;
14858;SDS011;7521;51.700;6.874;2023-04-30T02:12:39;10.13;;;8.07;;
14858;SDS011;7521;51.700;6.874;2023-04-30T02:15:44;13.87;;;9.03;;
14858;SDS011;7521;51.700;6.874;2023-04-30T02:18:50;10.13;;;8.27;;
14858;SDS011;7521;51.700;6.874;2023-04-30T02:21:55;11.50;;;7.93;;
14858;SDS011;7521;51.700;6.874;2023-04-30T02:25:00;10.52;;;8.23;;
14858;SDS011;7521;51.700;6.874;2023-04-30T02:28:05;11.57;;;8.10;;
14858;SDS011;7521;51.700;6.874;2023-04-30T02:31:11;12.93;;;8.45;;
14858;SDS011;7521;51.700;6.874;2023-04-30T02:34:16;11.45;;;9.05;;
14858;SDS011;7521;51.700;6.874;2023-04-30T02:37:21;10.57;;;8.77;;
14858;SDS011;7521;51.700;6.874;2023-04-30T02:40:26;16.17;;;8.57;;
14858;SDS011;7521;51.700;6.874;2023-04-30T02:43:31;11.15;;;8.13;;
14858;SDS011;7521;51.700;6.874;2023-04-30T02:46:37;10.73;;;8.70;;
14858;SDS011;7521;51.700;6.874;2023-04-30T02:49:42;10.68;;;8.52;;
14858;SDS011;7521;51.700;6.874;2023-04-30T02:52:47;13.10;;;8.70;;
14858;SDS011;7521;51.700;6.874;2023-04-30T02:55:52;11.30;;;8.90;;
14858;SDS011;7521;51.700;6.874;2023-04-30T02:58:57;11.82;;;8.93;;
14858;SDS011;7521;51.700;6.874;2023-04-30T03:02:03;12.85;;;8.48;;
14858;SDS011;7521;51.700;6.874;2023-04-30T03:05:08;10.93;;;8.10;;
14858;SDS011;7521;51.700;6.874;2023-04-30T03:08:13;11.57;;;7.40;;
14858;SDS011;7521;51.700;6.874;2023-04-30T03:11:18;9.73;;;8.32;;
14858;SDS011;7521;51.700;6.874;2023-04-30T03:14:23;10.60;;;8.55;;
14858;SDS011;7521;51.700;6.874;2023-04-30T03:17:28;13.30;;;9.00;;
14858;SDS011;7521;51.700;6.874;2023-04-30T03:20:34;11.40;;;8.80;;
14858;SDS011;7521;51.700;6.874;2023-04-30T03:23:39;13.10;;;8.90;;
14858;SDS011;7521;51.700;6.874;2023-04-30T03:26:44;13.57;;;8.93;;
14858;SDS011;7521;51.700;6.874;2023-04-30T03:29:50;11.60;;;8.93;;
14858;SDS011;7521;51.700;6.874;2023-04-30T03:32:55;16.20;;;9.33;;
14858;SDS011;7521;51.700;6.874;2023-04-30T03:36:00;13.63;;;9.80;;
14858;SDS011;7521;51.700;6.874;2023-04-30T03:39:05;19.30;;;10.35;;
14858;SDS011;7521;51.700;6.874;2023-04-30T03:42:11;16.33;;;11.13;;
14858;SDS011;7521;51.700;6.874;2023-04-30T03:45:16;15.45;;;11.50;;
14858;SDS011;7521;51.700;6.874;2023-04-30T03:48:22;18.40;;;13.00;;
14858;SDS011;7521;51.700;6.874;2023-04-30T03:51:27;17.20;;;12.65;;
14858;SDS011;7521;51.700;6.874;2023-04-30T03:54:32;15.53;;;11.90;;
14858;SDS011;7521;51.700;6.874;2023-04-30T03:57:40;16.07;;;10.97;;
14858;SDS011;7521;51.700;6.874;2023-04-30T04:00:45;16.33;;;11.77;;
14858;SDS011;7521;51.700;6.874;2023-04-30T04:03:52;15.47;;;11.80;;
14858;SDS011;7521;51.700;6.874;2023-04-30T04:06:57;18.97;;;12.20;;
14858;SDS011;7521;51.700;6.874;2023-04-30T04:10:03;19.27;;;12.50;;
14858;SDS011;7521;51.700;6.874;2023-04-30T04:13:08;17.77;;;12.40;;
14858;SDS011;7521;51.700;6.874;2023-04-30T04:16:13;17.08;;;11.52;;
14858;SDS011;7521;51.700;6.874;2023-04-30T04:19:18;16.58;;;12.05;;
14858;SDS011;7521;51.700;6.874;2023-04-30T04:22:23;18.33;;;12.07;;
14858;SDS011;7521;51.700;6.874;2023-04-30T04:25:29;14.88;;;12.25;;
14858;SDS011;7521;51.700;6.874;2023-04-30T04:28:34;18.73;;;12.30;;
14858;SDS011;7521;51.700;6.874;2023-04-30T04:31:40;18.20;;;13.00;;
14858;SDS011;7521;51.700;6.874;2023-04-30T04:34:46;19.90;;;13.23;;
14858;SDS011;7521;51.700;6.874;2023-04-30T04:37:51;20.50;;;13.10;;
14858;SDS011;7521;51.700;6.874;2023-04-30T04:40:57;16.67;;;12.60;;
14858;SDS011;7521;51.700;6.874;2023-04-30T04:44:03;17.87;;;13.87;;
14858;SDS011;7521;51.700;6.874;2023-04-30T04:47:08;16.93;;;12.83;;
14858;SDS011;7521;51.700;6.874;2023-04-30T04:50:14;24.57;;;12.93;;
14858;SDS011;7521;51.700;6.874;2023-04-30T04:53:19;16.02;;;11.90;;
14858;SDS011;7521;51.700;6.874;2023-04-30T04:56:24;18.17;;;13.37;;
14858;SDS011;7521;51.700;6.874;2023-04-30T04:59:29;15.05;;;11.77;;
14858;SDS011;7521;51.700;6.874;2023-04-30T05:02:35;17.67;;;12.53;;
14858;SDS011;7521;51.700;6.874;2023-04-30T05:05:40;16.15;;;11.95;;
14858;SDS011;7521;51.700;6.874;2023-04-30T05:08:45;20.77;;;12.43;;
14858;SDS011;7521;51.700;6.874;2023-04-30T05:11:50;15.75;;;11.90;;
14858;SDS011;7521;51.700;6.874;2023-04-30T05:14:55;17.70;;;11.82;;
14858;SDS011;7521;51.700;6.874;2023-04-30T05:18:00;17.58;;;13.00;;
14858;SDS011;7521;51.700;6.874;2023-04-30T05:21:06;17.70;;;12.48;;
14858;SDS011;7521;51.700;6.874;2023-04-30T05:24:11;18.73;;;13.10;;
14858;SDS011;7521;51.700;6.874;2023-04-30T05:27:16;19.83;;;12.90;;
14858;SDS011;7521;51.700;6.874;2023-04-30T05:30:21;17.13;;;12.93;;
14858;SDS011;7521;51.700;6.874;2023-04-30T05:33:27;16.97;;;13.57;;
14858;SDS011;7521;51.700;6.874;2023-04-30T05:36:32;18.27;;;13.90;;
14858;SDS011;7521;51.700;6.874;2023-04-30T05:39:37;19.03;;;13.70;;
14858;SDS011;7521;51.700;6.874;2023-04-30T05:42:42;16.50;;;12.52;;
14858;SDS011;7521;51.700;6.874;2023-04-30T05:45:47;19.87;;;13.63;;
14858;SDS011;7521;51.700;6.874;2023-04-30T05:48:53;17.83;;;12.93;;
14858;SDS011;7521;51.700;6.874;2023-04-30T05:51:58;17.30;;;13.37;;
14858;SDS011;7521;51.700;6.874;2023-04-30T05:55:03;16.33;;;13.23;;
14858;SDS011;7521;51.700;6.874;2023-04-30T05:58:09;16.63;;;12.57;;
14858;SDS011;7521;51.700;6.874;2023-04-30T06:01:14;15.87;;;12.17;;
14858;SDS011;7521;51.700;6.874;2023-04-30T06:04:19;16.10;;;12.63;;
14858;SDS011;7521;51.700;6.874;2023-04-30T06:07:24;16.48;;;11.93;;
14858;SDS011;7521;51.700;6.874;2023-04-30T06:10:29;15.70;;;12.10;;
14858;SDS011;7521;51.700;6.874;2023-04-30T06:13:35;14.67;;;11.97;;
14858;SDS011;7521;51.700;6.874;2023-04-30T06:16:40;13.33;;;11.90;;
14858;SDS011;7521;51.700;6.874;2023-04-30T06:19:45;14.52;;;11.07;;
14858;SDS011;7521;51.700;6.874;2023-04-30T06:22:50;16.52;;;11.93;;
14858;SDS011;7521;51.700;6.874;2023-04-30T06:25:55;14.82;;;12.13;;
14858;SDS011;7521;51.700;6.874;2023-04-30T06:29:01;14.50;;;11.38;;
14858;SDS011;7521;51.700;6.874;2023-04-30T06:32:06;13.38;;;11.63;;
14858;SDS011;7521;51.700;6.874;2023-04-30T06:35:11;13.73;;;10.23;;
14858;SDS011;7521;51.700;6.874;2023-04-30T06:38:16;11.73;;;10.00;;
14858;SDS011;7521;51.700;6.874;2023-04-30T06:41:22;18.07;;;10.63;;
14858;SDS011;7521;51.700;6.874;2023-04-30T06:44:27;14.60;;;10.63;;
14858;SDS011;7521;51.700;6.874;2023-04-30T06:47:32;12.13;;;10.00;;
14858;SDS011;7521;51.700;6.874;2023-04-30T06:50:41;12.97;;;10.63;;
14858;SDS011;7521;51.700;6.874;2023-04-30T06:53:49;11.57;;;9.60;;
14858;SDS011;7521;51.700;6.874;2023-04-30T06:56:54;12.68;;;10.57;;
14858;SDS011;7521;51.700;6.874;2023-04-30T07:00:00;13.80;;;10.00;;
14858;SDS011;7521;51.700;6.874;2023-04-30T07:03:06;11.73;;;9.73;;
14858;SDS011;7521;51.700;6.874;2023-04-30T07:06:11;13.30;;;10.30;;
14858;SDS011;7521;51.700;6.874;2023-04-30T07:09:16;14.90;;;11.20;;
14858;SDS011;7521;51.700;6.874;2023-04-30T07:12:22;13.35;;;10.85;;
14858;SDS011;7521;51.700;6.874;2023-04-30T07:15:27;11.17;;;9.83;;
14858;SDS011;7521;51.700;6.874;2023-04-30T07:18:32;13.43;;;10.55;;
14858;SDS011;7521;51.700;6.874;2023-04-30T07:21:37;11.38;;;9.88;;
14858;SDS011;7521;51.700;6.874;2023-04-30T07:24:42;11.77;;;10.10;;
14858;SDS011;7521;51.700;6.874;2023-04-30T07:27:47;10.90;;;9.10;;
14858;SDS011;7521;51.700;6.874;2023-04-30T07:30:55;10.30;;;8.40;;
14858;SDS011;7521;51.700;6.874;2023-04-30T07:34:00;9.77;;;7.70;;
14858;SDS011;7521;51.700;6.874;2023-04-30T07:37:06;10.43;;;8.53;;
14858;SDS011;7521;51.700;6.874;2023-04-30T07:40:12;11.00;;;8.03;;
14858;SDS011;7521;51.700;6.874;2023-04-30T07:43:18;14.00;;;8.60;;
14858;SDS011;7521;51.700;6.874;2023-04-30T07:46:23;9.50;;;7.57;;
14858;SDS011;7521;51.700;6.874;2023-04-30T07:49:29;11.00;;;7.47;;
14858;SDS011;7521;51.700;6.874;2023-04-30T07:52:34;10.18;;;7.57;;
14858;SDS011;7521;51.700;6.874;2023-04-30T07:55:40;10.03;;;7.20;;
14858;SDS011;7521;51.700;6.874;2023-04-30T07:58:45;10.02;;;6.65;;
14858;SDS011;7521;51.700;6.874;2023-04-30T08:01:50;7.28;;;5.97;;
14858;SDS011;7521;51.700;6.874;2023-04-30T08:04:55;10.03;;;6.70;;
14858;SDS011;7521;51.700;6.874;2023-04-30T08:08:01;7.97;;;5.80;;
14858;SDS011;7521;51.700;6.874;2023-04-30T08:11:06;8.00;;;6.07;;
14858;SDS011;7521;51.700;6.874;2023-04-30T08:14:11;8.80;;;5.63;;
14858;SDS011;7521;51.700;6.874;2023-04-30T08:17:16;7.27;;;5.20;;
14858;SDS011;7521;51.700;6.874;2023-04-30T08:20:21;7.25;;;4.90;;
14858;SDS011;7521;51.700;6.874;2023-04-30T08:23:30;8.80;;;5.20;;
14858;SDS011;7521;51.700;6.874;2023-04-30T08:26:35;9.13;;;5.32;;
14858;SDS011;7521;51.700;6.874;2023-04-30T08:29:40;7.07;;;4.40;;
14858;SDS011;7521;51.700;6.874;2023-04-30T08:32:45;9.53;;;4.87;;
14858;SDS011;7521;51.700;6.874;2023-04-30T08:35:50;7.25;;;4.80;;
14858;SDS011;7521;51.700;6.874;2023-04-30T08:38:56;4.80;;;3.63;;
14858;SDS011;7521;51.700;6.874;2023-04-30T08:42:02;7.57;;;4.60;;
14858;SDS011;7521;51.700;6.874;2023-04-30T08:45:08;5.80;;;4.20;;
14858;SDS011;7521;51.700;6.874;2023-04-30T08:48:15;5.47;;;4.37;;
14858;SDS011;7521;51.700;6.874;2023-04-30T08:51:20;6.77;;;3.90;;
14858;SDS011;7521;51.700;6.874;2023-04-30T08:54:27;6.63;;;3.90;;
14858;SDS011;7521;51.700;6.874;2023-04-30T08:57:34;6.07;;;3.50;;
14858;SDS011;7521;51.700;6.874;2023-04-30T09:00:40;4.93;;;3.43;;
14858;SDS011;7521;51.700;6.874;2023-04-30T09:03:45;4.43;;;3.00;;
14858;SDS011;7521;51.700;6.874;2023-04-30T09:06:51;3.03;;;2.77;;
14858;SDS011;7521;51.700;6.874;2023-04-30T09:09:56;3.97;;;2.90;;
14858;SDS011;7521;51.700;6.874;2023-04-30T09:13:05;4.47;;;3.30;;
14858;SDS011;7521;51.700;6.874;2023-04-30T09:16:11;3.83;;;2.40;;
14858;SDS011;7521;51.700;6.874;2023-04-30T09:19:22;3.85;;;2.22;;
14858;SDS011;7521;51.700;6.874;2023-04-30T09:22:28;6.20;;;3.10;;
14858;SDS011;7521;51.700;6.874;2023-04-30T09:25:40;3.93;;;2.97;;
14858;SDS011;7521;51.700;6.874;2023-04-30T09:28:55;3.30;;;2.63;;
14858;SDS011;7521;51.700;6.874;2023-04-30T09:32:06;4.87;;;3.10;;
14858;SDS011;7521;51.700;6.874;2023-04-30T09:35:27;4.03;;;3.00;;
14858;SDS011;7521;51.700;6.874;2023-04-30T09:38:32;4.93;;;3.20;;
14858;SDS011;7521;51.700;6.874;2023-04-30T09:41:38;7.43;;;3.83;;
14858;SDS011;7521;51.700;6.874;2023-04-30T09:44:43;5.73;;;3.87;;
14858;SDS011;7521;51.700;6.874;2023-04-30T09:47:48;5.73;;;3.37;;
14858;SDS011;7521;51.700;6.874;2023-04-30T09:50:56;5.43;;;4.10;;
14858;SDS011;7521;51.700;6.874;2023-04-30T09:54:01;4.23;;;3.20;;
14858;SDS011;7521;51.700;6.874;2023-04-30T09:57:08;4.87;;;3.37;;
14858;SDS011;7521;51.700;6.874;2023-04-30T10:00:15;6.07;;;3.90;;
14858;SDS011;7521;51.700;6.874;2023-04-30T10:03:20;5.67;;;4.00;;
14858;SDS011;7521;51.700;6.874;2023-04-30T10:06:26;5.63;;;4.00;;
14858;SDS011;7521;51.700;6.874;2023-04-30T10:09:40;6.80;;;4.40;;
14858;SDS011;7521;51.700;6.874;2023-04-30T10:12:47;7.63;;;4.80;;
14858;SDS011;7521;51.700;6.874;2023-04-30T10:15:54;9.20;;;4.20;;
14858;SDS011;7521;51.700;6.874;2023-04-30T10:19:04;6.10;;;4.30;;
14858;SDS011;7521;51.700;6.874;2023-04-30T10:22:10;4.20;;;3.47;;
14858;SDS011;7521;51.700;6.874;2023-04-30T10:25:16;8.30;;;4.20;;
14858;SDS011;7521;51.700;6.874;2023-04-30T10:28:22;5.43;;;3.50;;
14858;SDS011;7521;51.700;6.874;2023-04-30T10:31:27;4.43;;;3.20;;
14858;SDS011;7521;51.700;6.874;2023-04-30T10:34:45;5.77;;;3.93;;
14858;SDS011;7521;51.700;6.874;2023-04-30T10:37:56;6.97;;;3.60;;
14858;SDS011;7521;51.700;6.874;2023-04-30T10:41:04;5.60;;;4.10;;
14858;SDS011;7521;51.700;6.874;2023-04-30T10:44:10;6.80;;;3.77;;
14858;SDS011;7521;51.700;6.874;2023-04-30T10:47:15;7.50;;;4.33;;
14858;SDS011;7521;51.700;6.874;2023-04-30T10:50:21;7.30;;;3.57;;
14858;SDS011;7521;51.700;6.874;2023-04-30T10:53:30;4.77;;;3.30;;
14858;SDS011;7521;51.700;6.874;2023-04-30T10:56:35;4.00;;;2.93;;
14858;SDS011;7521;51.700;6.874;2023-04-30T10:59:41;6.43;;;3.63;;
14858;SDS011;7521;51.700;6.874;2023-04-30T11:02:49;5.90;;;3.57;;
14858;SDS011;7521;51.700;6.874;2023-04-30T11:05:59;5.90;;;3.40;;
14858;SDS011;7521;51.700;6.874;2023-04-30T11:09:07;4.10;;;3.00;;
14858;SDS011;7521;51.700;6.874;2023-04-30T11:12:13;6.30;;;3.27;;
14858;SDS011;7521;51.700;6.874;2023-04-30T11:15:20;5.03;;;2.90;;
14858;SDS011;7521;51.700;6.874;2023-04-30T11:18:26;4.87;;;3.00;;
14858;SDS011;7521;51.700;6.874;2023-04-30T11:21:31;3.50;;;2.77;;
14858;SDS011;7521;51.700;6.874;2023-04-30T11:24:55;7.07;;;3.33;;
14858;SDS011;7521;51.700;6.874;2023-04-30T11:28:04;7.23;;;3.30;;
14858;SDS011;7521;51.700;6.874;2023-04-30T11:31:10;3.67;;;2.57;;
14858;SDS011;7521;51.700;6.874;2023-04-30T11:34:15;4.30;;;1.77;;
14858;SDS011;7521;51.700;6.874;2023-04-30T11:37:22;4.43;;;1.87;;
14858;SDS011;7521;51.700;6.874;2023-04-30T11:40:28;3.50;;;1.77;;
14858;SDS011;7521;51.700;6.874;2023-04-30T11:43:39;3.63;;;1.67;;
14858;SDS011;7521;51.700;6.874;2023-04-30T11:46:44;3.00;;;1.90;;
14858;SDS011;7521;51.700;6.874;2023-04-30T11:49:49;3.17;;;1.57;;
14858;SDS011;7521;51.700;6.874;2023-04-30T11:52:55;3.60;;;1.40;;
14858;SDS011;7521;51.700;6.874;2023-04-30T11:56:01;3.20;;;1.47;;
14858;SDS011;7521;51.700;6.874;2023-04-30T11:59:09;2.87;;;1.47;;
14858;SDS011;7521;51.700;6.874;2023-04-30T12:02:15;4.97;;;2.60;;
14858;SDS011;7521;51.700;6.874;2023-04-30T12:05:21;4.50;;;2.30;;
14858;SDS011;7521;51.700;6.874;2023-04-30T12:08:26;3.20;;;2.17;;
14858;SDS011;7521;51.700;6.874;2023-04-30T12:11:32;4.03;;;1.90;;
14858;SDS011;7521;51.700;6.874;2023-04-30T12:14:38;3.33;;;1.83;;
14858;SDS011;7521;51.700;6.874;2023-04-30T12:17:43;3.33;;;1.67;;
14858;SDS011;7521;51.700;6.874;2023-04-30T12:20:49;4.03;;;1.90;;
14858;SDS011;7521;51.700;6.874;2023-04-30T12:23:55;4.63;;;2.37;;
14858;SDS011;7521;51.700;6.874;2023-04-30T12:27:00;2.77;;;1.97;;
14858;SDS011;7521;51.700;6.874;2023-04-30T12:30:06;4.47;;;1.83;;
14858;SDS011;7521;51.700;6.874;2023-04-30T12:33:15;3.53;;;1.43;;
14858;SDS011;7521;51.700;6.874;2023-04-30T12:36:21;3.67;;;2.00;;
14858;SDS011;7521;51.700;6.874;2023-04-30T12:39:33;3.13;;;1.93;;
14858;SDS011;7521;51.700;6.874;2023-04-30T12:42:42;3.83;;;1.73;;
14858;SDS011;7521;51.700;6.874;2023-04-30T12:45:51;3.77;;;1.83;;
14858;SDS011;7521;51.700;6.874;2023-04-30T12:48:56;2.90;;;1.47;;
14858;SDS011;7521;51.700;6.874;2023-04-30T12:52:07;2.33;;;1.10;;
14858;SDS011;7521;51.700;6.874;2023-04-30T12:55:13;5.33;;;1.67;;
14858;SDS011;7521;51.700;6.874;2023-04-30T12:58:18;3.43;;;1.33;;
14858;SDS011;7521;51.700;6.874;2023-04-30T13:01:23;2.67;;;1.30;;
14858;SDS011;7521;51.700;6.874;2023-04-30T13:04:29;3.87;;;1.47;;
14858;SDS011;7521;51.700;6.874;2023-04-30T13:07:37;2.83;;;0.97;;
14858;SDS011;7521;51.700;6.874;2023-04-30T13:10:44;3.43;;;1.30;;
14858;SDS011;7521;51.700;6.874;2023-04-30T13:13:50;3.57;;;1.50;;
14858;SDS011;7521;51.700;6.874;2023-04-30T13:16:56;2.37;;;1.30;;
14858;SDS011;7521;51.700;6.874;2023-04-30T13:20:01;4.20;;;1.27;;
14858;SDS011;7521;51.700;6.874;2023-04-30T13:23:06;4.47;;;1.63;;
14858;SDS011;7521;51.700;6.874;2023-04-30T13:26:11;1.70;;;1.00;;
14858;SDS011;7521;51.700;6.874;2023-04-30T13:29:16;4.10;;;1.75;;
14858;SDS011;7521;51.700;6.874;2023-04-30T13:32:24;3.37;;;1.50;;
14858;SDS011;7521;51.700;6.874;2023-04-30T13:35:29;2.78;;;1.58;;
14858;SDS011;7521;51.700;6.874;2023-04-30T13:38:35;4.13;;;1.60;;
14858;SDS011;7521;51.700;6.874;2023-04-30T13:41:40;3.33;;;1.60;;
14858;SDS011;7521;51.700;6.874;2023-04-30T13:44:45;2.95;;;1.55;;
14858;SDS011;7521;51.700;6.874;2023-04-30T13:47:52;2.83;;;1.00;;
14858;SDS011;7521;51.700;6.874;2023-04-30T13:50:57;3.57;;;1.40;;
14858;SDS011;7521;51.700;6.874;2023-04-30T13:54:02;3.22;;;1.20;;
14858;SDS011;7521;51.700;6.874;2023-04-30T13:57:08;3.37;;;1.13;;
14858;SDS011;7521;51.700;6.874;2023-04-30T14:00:13;5.10;;;1.23;;
14858;SDS011;7521;51.700;6.874;2023-04-30T14:03:19;6.63;;;1.63;;
14858;SDS011;7521;51.700;6.874;2023-04-30T14:06:25;2.25;;;1.40;;
14858;SDS011;7521;51.700;6.874;2023-04-30T14:09:30;2.93;;;1.27;;
14858;SDS011;7521;51.700;6.874;2023-04-30T14:12:35;2.22;;;1.15;;
14858;SDS011;7521;51.700;6.874;2023-04-30T14:15:42;3.40;;;1.43;;
14858;SDS011;7521;51.700;6.874;2023-04-30T14:18:47;1.92;;;1.13;;
14858;SDS011;7521;51.700;6.874;2023-04-30T14:21:52;3.33;;;1.40;;
14858;SDS011;7521;51.700;6.874;2023-04-30T14:24:57;2.97;;;1.20;;
14858;SDS011;7521;51.700;6.874;2023-04-30T14:28:03;1.73;;;0.87;;
14858;SDS011;7521;51.700;6.874;2023-04-30T14:31:08;2.20;;;1.00;;
14858;SDS011;7521;51.700;6.874;2023-04-30T14:34:14;2.50;;;1.00;;
14858;SDS011;7521;51.700;6.874;2023-04-30T14:37:19;3.17;;;1.45;;
14858;SDS011;7521;51.700;6.874;2023-04-30T14:40:24;3.50;;;0.93;;
14858;SDS011;7521;51.700;6.874;2023-04-30T14:43:30;1.80;;;0.90;;
14858;SDS011;7521;51.700;6.874;2023-04-30T14:46:35;2.35;;;0.90;;
14858;SDS011;7521;51.700;6.874;2023-04-30T14:49:40;2.85;;;1.20;;
14858;SDS011;7521;51.700;6.874;2023-04-30T14:52:45;2.13;;;1.07;;
14858;SDS011;7521;51.700;6.874;2023-04-30T14:55:51;2.43;;;1.10;;
14858;SDS011;7521;51.700;6.874;2023-04-30T14:58:56;3.43;;;1.20;;
14858;SDS011;7521;51.700;6.874;2023-04-30T15:02:01;2.00;;;1.00;;
14858;SDS011;7521;51.700;6.874;2023-04-30T15:05:06;1.70;;;0.90;;
14858;SDS011;7521;51.700;6.874;2023-04-30T15:08:12;1.90;;;0.70;;
14858;SDS011;7521;51.700;6.874;2023-04-30T15:11:17;1.45;;;0.90;;
14858;SDS011;7521;51.700;6.874;2023-04-30T15:14:23;5.33;;;1.00;;
14858;SDS011;7521;51.700;6.874;2023-04-30T15:17:28;2.07;;;0.90;;
14858;SDS011;7521;51.700;6.874;2023-04-30T15:20:33;3.00;;;0.80;;
14858;SDS011;7521;51.700;6.874;2023-04-30T15:23:38;4.47;;;1.52;;
14858;SDS011;7521;51.700;6.874;2023-04-30T15:26:44;3.10;;;1.10;;
14858;SDS011;7521;51.700;6.874;2023-04-30T15:29:49;3.00;;;1.00;;
14858;SDS011;7521;51.700;6.874;2023-04-30T15:32:54;3.85;;;1.10;;
14858;SDS011;7521;51.700;6.874;2023-04-30T15:35:59;2.92;;;1.25;;
14858;SDS011;7521;51.700;6.874;2023-04-30T15:39:04;7.67;;;1.10;;
14858;SDS011;7521;51.700;6.874;2023-04-30T15:42:10;2.17;;;0.90;;
14858;SDS011;7521;51.700;6.874;2023-04-30T15:45:15;3.87;;;1.87;;
14858;SDS011;7521;51.700;6.874;2023-04-30T15:48:20;2.00;;;1.17;;
14858;SDS011;7521;51.700;6.874;2023-04-30T15:51:25;2.43;;;1.10;;
14858;SDS011;7521;51.700;6.874;2023-04-30T15:54:34;5.00;;;1.10;;
14858;SDS011;7521;51.700;6.874;2023-04-30T15:57:39;1.70;;;0.90;;
14858;SDS011;7521;51.700;6.874;2023-04-30T16:00:44;3.00;;;1.40;;
14858;SDS011;7521;51.700;6.874;2023-04-30T16:03:49;1.80;;;1.13;;
14858;SDS011;7521;51.700;6.874;2023-04-30T16:06:55;1.10;;;0.60;;
14858;SDS011;7521;51.700;6.874;2023-04-30T16:10:01;2.60;;;0.77;;
14858;SDS011;7521;51.700;6.874;2023-04-30T16:13:06;2.67;;;0.63;;
14858;SDS011;7521;51.700;6.874;2023-04-30T16:16:11;4.88;;;1.20;;
14858;SDS011;7521;51.700;6.874;2023-04-30T16:19:17;2.53;;;0.80;;
14858;SDS011;7521;51.700;6.874;2023-04-30T16:22:22;3.65;;;0.80;;
14858;SDS011;7521;51.700;6.874;2023-04-30T16:25:28;3.73;;;1.10;;
14858;SDS011;7521;51.700;6.874;2023-04-30T16:28:34;4.90;;;1.40;;
14858;SDS011;7521;51.700;6.874;2023-04-30T16:31:40;4.72;;;1.40;;
14858;SDS011;7521;51.700;6.874;2023-04-30T16:34:45;2.97;;;1.23;;
14858;SDS011;7521;51.700;6.874;2023-04-30T16:37:52;1.73;;;1.10;;
14858;SDS011;7521;51.700;6.874;2023-04-30T16:40:58;4.33;;;1.00;;
14858;SDS011;7521;51.700;6.874;2023-04-30T16:44:04;2.70;;;0.80;;
14858;SDS011;7521;51.700;6.874;2023-04-30T16:47:09;3.17;;;1.00;;
14858;SDS011;7521;51.700;6.874;2023-04-30T16:50:15;6.60;;;1.37;;
14858;SDS011;7521;51.700;6.874;2023-04-30T16:53:20;1.77;;;0.73;;
14858;SDS011;7521;51.700;6.874;2023-04-30T16:56:25;2.20;;;0.83;;
14858;SDS011;7521;51.700;6.874;2023-04-30T16:59:30;5.90;;;1.10;;
14858;SDS011;7521;51.700;6.874;2023-04-30T17:02:36;3.03;;;0.83;;
14858;SDS011;7521;51.700;6.874;2023-04-30T17:05:42;2.07;;;0.90;;
14858;SDS011;7521;51.700;6.874;2023-04-30T17:08:47;3.33;;;1.00;;
14858;SDS011;7521;51.700;6.874;2023-04-30T17:11:52;2.17;;;0.95;;
14858;SDS011;7521;51.700;6.874;2023-04-30T17:14:57;2.08;;;0.80;;
14858;SDS011;7521;51.700;6.874;2023-04-30T17:18:02;2.15;;;0.85;;
14858;SDS011;7521;51.700;6.874;2023-04-30T17:21:08;3.03;;;1.10;;
14858;SDS011;7521;51.700;6.874;2023-04-30T17:24:13;5.40;;;0.70;;
14858;SDS011;7521;51.700;6.874;2023-04-30T17:27:18;2.23;;;0.73;;
14858;SDS011;7521;51.700;6.874;2023-04-30T17:30:24;2.58;;;0.60;;
14858;SDS011;7521;51.700;6.874;2023-04-30T17:33:30;1.53;;;0.70;;
14858;SDS011;7521;51.700;6.874;2023-04-30T17:36:35;2.67;;;0.57;;
14858;SDS011;7521;51.700;6.874;2023-04-30T17:39:40;1.80;;;0.67;;
14858;SDS011;7521;51.700;6.874;2023-04-30T17:42:45;2.27;;;0.80;;
14858;SDS011;7521;51.700;6.874;2023-04-30T17:45:51;2.63;;;0.70;;
14858;SDS011;7521;51.700;6.874;2023-04-30T17:48:57;4.50;;;1.30;;
14858;SDS011;7521;51.700;6.874;2023-04-30T17:52:05;1.97;;;0.50;;
14858;SDS011;7521;51.700;6.874;2023-04-30T17:55:10;2.63;;;0.63;;
14858;SDS011;7521;51.700;6.874;2023-04-30T17:58:16;3.63;;;0.90;;
14858;SDS011;7521;51.700;6.874;2023-04-30T18:01:22;1.30;;;0.80;;
14858;SDS011;7521;51.700;6.874;2023-04-30T18:04:27;1.43;;;0.53;;
14858;SDS011;7521;51.700;6.874;2023-04-30T18:07:33;2.33;;;0.80;;
14858;SDS011;7521;51.700;6.874;2023-04-30T18:10:38;2.90;;;0.90;;
14858;SDS011;7521;51.700;6.874;2023-04-30T18:13:43;2.85;;;0.70;;
14858;SDS011;7521;51.700;6.874;2023-04-30T18:16:48;2.33;;;0.90;;
14858;SDS011;7521;51.700;6.874;2023-04-30T18:19:54;2.83;;;0.67;;
14858;SDS011;7521;51.700;6.874;2023-04-30T18:22:59;2.90;;;1.00;;
14858;SDS011;7521;51.700;6.874;2023-04-30T18:26:05;0.82;;;0.50;;
14858;SDS011;7521;51.700;6.874;2023-04-30T18:29:11;3.30;;;1.00;;
14858;SDS011;7521;51.700;6.874;2023-04-30T18:32:16;3.43;;;0.80;;
14858;SDS011;7521;51.700;6.874;2023-04-30T18:35:22;2.07;;;0.80;;
14858;SDS011;7521;51.700;6.874;2023-04-30T18:38:27;1.63;;;0.70;;
14858;SDS011;7521;51.700;6.874;2023-04-30T18:41:32;3.35;;;1.00;;
14858;SDS011;7521;51.700;6.874;2023-04-30T18:44:37;5.83;;;0.70;;
14858;SDS011;7521;51.700;6.874;2023-04-30T18:47:42;2.20;;;0.75;;
14858;SDS011;7521;51.700;6.874;2023-04-30T18:50:48;3.40;;;0.80;;
14858;SDS011;7521;51.700;6.874;2023-04-30T18:53:54;1.93;;;0.73;;
14858;SDS011;7521;51.700;6.874;2023-04-30T18:57:01;3.13;;;0.90;;